Time;durP1;ratioP1;P1;durP2;ratioP2;P2;SDS_P1;SDS_P2;PMS_P1;PMS_P2;Temp;Humidity;BMP_temperature;BMP_pressure;BME280_temperature;BME280_humidity;BME280_pressure;Samples;Min_cycle;Max_cycle;Signal;HPM_P1;HPM_P2
2021/10/05 09:49:11;;;;;;;3.67;0.80;;;21.80;71.50;;;;;;5263297;23;20089;-91
2021/10/05 09:51:36;;;;;;;3.13;0.70;;;20.40;75.40;;;;;;4976363;28;20026;-87
2021/10/05 09:54:02;;;;;;;1.42;0.82;;;20.10;76.90;;;;;;4991885;28;20403;-84
2021/10/05 09:56:29;;;;;;;3.33;0.90;;;21.40;72.70;;;;;;4990919;28;20031;-85
2021/10/05 09:58:57;;;;;;;0.75;0.60;;;23.30;63.00;;;;;;4990483;28;20049;-85
2021/10/05 10:01:25;;;;;;;2.30;0.77;;;20.60;70.50;;;;;;4989498;28;20038;-86
2021/10/05 10:03:52;;;;;;;2.92;0.68;;;20.50;73.60;;;;;;4972786;28;20018;-86
2021/10/05 10:06:18;;;;;;;1.60;0.70;;;20.70;68.80;;;;;;4991988;28;20018;-86
2021/10/05 10:08:56;;;;;;;2.13;0.63;;;19.80;72.30;;;;;;4991021;28;20510;-90
2021/10/05 10:11:23;;;;;;;2.72;0.70;;;19.30;78.00;;;;;;4990423;28;20030;-85
2021/10/05 10:13:50;;;;;;;1.15;0.70;;;19.00;78.80;;;;;;4990302;28;20042;-85
2021/10/05 10:16:17;;;;;;;1.52;0.60;;;19.00;77.20;;;;;;4990833;28;20054;-85
2021/10/05 10:18:58;;;;;;;1.10;0.60;;;19.30;90.50;;;;;;4989811;28;20095;-86
2021/10/05 10:21:34;;;;;;;4.03;0.68;;;19.70;76.40;;;;;;4990240;28;20479;-86
2021/10/05 10:24:10;;;;;;;3.42;1.00;;;19.60;76.90;;;;;;4991416;28;20030;-84
2021/10/05 10:26:40;;;;;;;1.05;0.60;;;19.50;77.60;;;;;;4971862;28;20026;-85
2021/10/05 10:29:06;;;;;;;2.75;0.85;;;18.80;73.70;;;;;;4989983;28;20085;-84
2021/10/05 10:31:38;;;;;;;2.30;0.80;;;19.00;79.00;;;;;;4989917;28;20434;-86
2021/10/05 10:34:04;;;;;;;2.28;0.73;;;18.60;78.90;;;;;;4972567;28;20028;-85
2021/10/05 10:36:34;;;;;;;1.45;0.90;;;18.60;78.40;;;;;;4990594;28;20030;-83
2021/10/05 10:39:15;;;;;;;2.85;0.98;;;18.30;78.40;;;;;;4992217;28;20115;-90
2021/10/05 10:41:46;;;;;;;3.50;0.80;;;18.00;81.90;;;;;;4989083;28;20034;-88
2021/10/05 10:44:13;;;;;;;2.63;0.80;;;17.90;82.10;;;;;;4990077;28;20336;-88
2021/10/05 10:46:41;;;;;;;4.25;0.90;;;17.90;77.60;;;;;;4971875;28;20069;-91
2021/10/05 10:49:14;;;;;;;4.25;0.93;;;18.10;82.70;;;;;;4990576;28;20165;-85
2021/10/05 10:51:42;;;;;;;0.88;0.60;;;18.20;80.70;;;;;;4971365;28;20039;-81
2021/10/05 10:54:22;;;;;;;3.13;0.60;;;18.20;78.00;;;;;;4986473;28;20545;-82
2021/10/05 10:56:59;;;;;;;0.70;0.70;;;18.50;82.60;;;;;;4989104;28;20070;-82
2021/10/05 10:59:26;;;;;;;1.20;0.70;;;19.00;82.10;;;;;;4987787;28;20492;-81
2021/10/05 11:01:52;;;;;;;0.77;0.60;;;18.90;79.70;;;;;;4987958;28;20559;-83
2021/10/05 11:04:20;;;;;;;3.13;1.15;;;18.80;77.00;;;;;;4987983;28;20053;-83
2021/10/05 11:06:48;;;;;;;2.50;0.60;;;19.10;80.20;;;;;;4991002;28;20062;-83
2021/10/05 11:09:14;;;;;;;1.25;0.88;;;18.60;75.80;;;;;;4994404;28;20108;-82
2021/10/05 11:11:45;;;;;;;1.58;0.68;;;18.90;82.30;;;;;;4993386;28;20117;-82
2021/10/05 11:14:21;;;;;;;3.60;1.00;;;19.50;77.60;;;;;;4992705;28;20057;-95
2021/10/05 11:17:03;;;;;;;1.52;0.88;;;19.90;74.70;;;;;;4992643;28;20026;-91
2021/10/05 11:19:32;;;;;;;2.03;0.90;;;20.50;76.40;;;;;;4992985;28;20076;-84
2021/10/05 11:22:00;;;;;;;1.65;0.88;;;21.20;65.60;;;;;;4992780;28;20033;-84
2021/10/05 11:24:43;;;;;;;1.80;0.70;;;19.60;70.40;;;;;;4993162;28;20133;-83
2021/10/05 11:27:21;;;;;;;3.38;1.05;;;19.00;74.40;;;;;;4991240;28;20273;-86
2021/10/05 11:29:48;;;;;;;1.65;0.80;;;18.80;74.90;;;;;;4994351;28;20030;-84
2021/10/05 11:32:18;;;;;;;1.20;0.70;;;18.50;76.60;;;;;;4992520;28;20022;-84
2021/10/05 11:34:45;;;;;;;1.67;1.50;;;17.90;80.00;;;;;;4975716;28;20019;-84
2021/10/05 11:37:13;;;;;;;1.13;0.80;;;17.60;79.70;;;;;;4993073;28;20030;-84
2021/10/05 11:39:42;;;;;;;1.50;0.80;;;17.50;83.30;;;;;;4993425;28;20042;-84
2021/10/05 11:42:13;;;;;;;1.08;0.90;;;17.20;83.40;;;;;;4990724;28;20394;-84
2021/10/05 11:44:41;;;;;;;1.30;0.85;;;17.20;83.50;;;;;;4991655;28;20041;-84
2021/10/05 11:47:10;;;;;;;2.90;0.60;;;17.20;86.80;;;;;;4992558;28;20026;-83
2021/10/05 11:49:39;;;;;;;2.03;1.08;;;17.10;86.00;;;;;;4992881;28;20514;-84
2021/10/05 11:52:08;;;;;;;2.53;0.85;;;16.90;86.20;;;;;;4975709;28;20034;-84
2021/10/05 11:54:35;;;;;;;2.83;1.15;;;16.80;86.00;;;;;;4992858;28;20034;-84
2021/10/05 11:57:15;;;;;;;2.15;1.00;;;16.80;87.90;;;;;;4994516;28;20089;-84
2021/10/05 11:59:42;;;;;;;3.63;0.80;;;16.70;87.60;;;;;;4992054;28;20507;-84
2021/10/05 12:02:20;;;;;;;0.70;0.70;;;16.70;86.50;;;;;;4992315;28;20490;-84
2021/10/05 12:04:56;;;;;;;1.75;0.80;;;16.50;87.70;;;;;;4992319;28;20054;-84
2021/10/05 12:07:23;;;;;;;1.77;1.10;;;16.50;85.10;;;;;;4992336;28;20026;-83
2021/10/05 12:10:16;;;;;;;2.25;0.95;;;16.50;90.00;;;;;;4975358;28;20493;-84
2021/10/05 12:12:42;;;;;;;2.10;0.90;;;16.60;90.80;;;;;;4959862;28;20772;-84
2021/10/05 12:15:18;;;;;;;1.65;0.90;;;16.60;87.40;;;;;;4993688;28;20034;-84
2021/10/05 12:17:44;;;;;;;3.13;0.80;;;16.20;99.90;;;;;;4993296;28;20561;-84
2021/10/05 12:20:15;;;;;;;2.35;0.98;;;16.00;99.90;;;;;;4974667;28;20035;-83
2021/10/05 12:22:47;;;;;;;2.78;1.10;;;15.90;99.90;;;;;;4990713;28;20018;-84
2021/10/05 12:25:14;;;;;;;2.88;0.80;;;16.10;99.90;;;;;;4992097;28;20030;-84
2021/10/05 12:27:42;;;;;;;2.13;1.00;;;16.50;99.90;;;;;;4959448;28;20043;-84
2021/10/05 12:30:12;;;;;;;2.78;0.98;;;16.60;99.90;;;;;;4971875;28;20399;-84
2021/10/05 12:32:48;;;;;;;2.05;0.80;;;16.40;99.90;;;;;;4992479;28;20030;-84
2021/10/05 12:35:33;;;;;;;2.17;0.88;;;16.10;99.90;;;;;;4992116;28;20522;-84
2021/10/05 12:38:11;;;;;;;1.83;0.90;;;16.10;99.90;;;;;;4992197;28;20050;-84
2021/10/05 12:40:55;;;;;;;1.58;0.75;;;16.10;99.90;;;;;;4991881;28;20380;-84
2021/10/05 12:43:34;;;;;;;1.17;0.75;;;16.00;99.90;;;;;;4991689;28;20040;-84
2021/10/05 12:46:01;;;;;;;1.67;0.80;;;16.00;99.90;;;;;;4992017;28;20030;-84
2021/10/05 12:48:37;;;;;;;2.83;0.80;;;16.00;99.90;;;;;;4974244;28;20062;-84
2021/10/05 12:51:10;;;;;;;6.55;1.10;;;16.00;99.90;;;;;;4976260;28;20022;-84
2021/10/05 12:53:36;;;;;;;1.20;0.73;;;15.80;99.90;;;;;;4991557;28;20027;-84
2021/10/05 12:56:02;;;;;;;1.27;0.70;;;15.20;99.90;;;;;;4974282;28;20030;-84
2021/10/05 12:58:28;;;;;;;3.65;0.90;;;15.30;99.90;;;;;;4991316;28;20450;-83
2021/10/05 13:00:53;;;;;;;2.10;0.90;;;15.40;99.90;;;;;;4990502;28;20027;-83
2021/10/05 13:03:19;;;;;;;1.85;0.80;;;15.30;99.90;;;;;;4992736;28;20027;-84
2021/10/05 13:05:45;;;;;;;0.70;0.68;;;15.40;99.90;;;;;;4975186;28;20034;-83
2021/10/05 13:08:11;;;;;;;1.08;0.70;;;15.50;99.90;;;;;;4991575;28;20031;-84
2021/10/05 13:10:36;;;;;;;2.03;0.80;;;15.40;99.90;;;;;;4973787;28;20030;-83
2021/10/05 13:13:02;;;;;;;1.77;0.77;;;15.60;99.90;;;;;;4991314;28;20022;-83
2021/10/05 13:15:29;;;;;;;1.52;0.80;;;15.70;99.90;;;;;;4991437;28;20030;-88
2021/10/05 13:17:55;;;;;;;1.42;0.70;;;15.60;99.90;;;;;;4975261;28;20034;-86
2021/10/05 13:20:22;;;;;;;1.73;0.65;;;15.50;99.90;;;;;;4990997;28;20053;-84
2021/10/05 13:22:48;;;;;;;2.17;0.70;;;15.50;99.90;;;;;;4991386;28;20026;-84
2021/10/05 13:25:14;;;;;;;1.98;0.88;;;15.40;99.90;;;;;;4990521;28;20609;-84
2021/10/05 13:27:40;;;;;;;2.03;0.70;;;15.40;99.90;;;;;;4990264;28;20443;-83
2021/10/05 13:30:09;;;;;;;2.25;0.90;;;15.40;99.90;;;;;;4992738;28;20034;-83
2021/10/05 13:32:35;;;;;;;0.73;0.73;;;15.30;99.90;;;;;;4992062;28;20421;-84
2021/10/05 13:35:03;;;;;;;1.55;0.95;;;15.30;99.90;;;;;;4990859;28;20026;-84
2021/10/05 13:37:28;;;;;;;3.03;1.42;;;15.30;99.90;;;;;;4990980;28;20041;-84
2021/10/05 13:39:54;;;;;;;2.03;1.00;;;15.20;99.90;;;;;;4989748;28;20018;-84
2021/10/05 13:42:20;;;;;;;1.27;1.13;;;15.00;99.90;;;;;;4991605;28;20034;-84
2021/10/05 13:44:45;;;;;;;1.98;1.20;;;15.00;99.90;;;;;;4991780;28;20069;-84
2021/10/05 13:47:11;;;;;;;2.15;1.10;;;15.10;99.90;;;;;;4991103;28;20400;-84
2021/10/05 13:49:37;;;;;;;1.75;0.82;;;14.80;99.90;;;;;;4990512;28;20046;-83
2021/10/05 13:52:03;;;;;;;1.67;0.80;;;14.70;99.90;;;;;;4990826;28;20034;-83
2021/10/05 13:54:28;;;;;;;1.17;0.80;;;14.10;99.90;;;;;;4990881;28;20553;-83
2021/10/05 13:56:54;;;;;;;2.03;0.65;;;14.00;14.00;;;;;;4974502;28;20045;-83
2021/10/05 13:59:19;;;;;;;1.15;0.85;;;13.90;99.90;;;;;;4990871;28;20184;-83
2021/10/05 14:01:45;;;;;;;1.52;0.70;;;13.90;99.90;;;;;;4991152;28;20029;-83
2021/10/05 14:04:11;;;;;;;1.30;0.85;;;14.00;99.90;;;;;;4991605;28;20635;-83
2021/10/05 14:06:36;;;;;;;3.00;0.90;;;14.20;99.90;;;;;;4990940;28;20022;-83
2021/10/05 14:09:02;;;;;;;1.05;0.80;;;14.30;99.90;;;;;;4992275;28;20037;-83
2021/10/05 14:11:28;;;;;;;3.20;1.00;;;14.40;99.90;;;;;;4989888;28;20499;-83
2021/10/05 14:13:57;;;;;;;1.83;0.70;;;14.70;99.90;;;;;;4991140;28;20113;-83
2021/10/05 14:16:24;;;;;;;3.40;0.80;;;15.00;99.90;;;;;;4989692;28;20031;-84
2021/10/05 14:18:50;;;;;;;1.58;0.70;;;15.20;99.90;;;;;;4971913;28;20053;-83
2021/10/05 14:21:18;;;;;;;1.48;0.73;;;15.30;99.90;;;;;;4992239;28;20026;-84
2021/10/05 14:23:46;;;;;;;1.13;0.70;;;15.30;99.90;;;;;;4991155;28;20026;-84
2021/10/05 14:26:12;;;;;;;1.45;0.68;;;15.40;99.90;;;;;;4989675;28;20038;-83
2021/10/05 14:28:38;;;;;;;2.03;0.70;;;15.50;99.90;;;;;;4989714;28;20026;-84
2021/10/05 14:31:03;;;;;;;2.30;0.85;;;15.50;99.90;;;;;;4972706;28;20062;-83
2021/10/05 14:33:29;;;;;;;1.45;0.63;;;15.40;99.90;;;;;;4990164;28;20065;-83
2021/10/05 14:35:54;;;;;;;1.88;0.80;;;15.30;99.90;;;;;;4992959;28;20030;-84
2021/10/05 14:38:20;;;;;;;1.45;0.60;;;15.20;99.90;;;;;;4990003;28;20090;-84
2021/10/05 14:40:46;;;;;;;1.60;1.02;;;15.20;99.90;;;;;;4993083;28;20057;-84
2021/10/05 14:43:12;;;;;;;2.35;0.95;;;15.10;99.90;;;;;;4994142;28;20091;-84
2021/10/05 14:45:37;;;;;;;1.17;0.68;;;15.10;99.90;;;;;;4976864;28;20105;-83
2021/10/05 14:48:04;;;;;;;2.55;0.80;;;15.20;99.90;;;;;;4978734;28;20476;-83
2021/10/05 14:50:31;;;;;;;1.73;0.77;;;15.20;99.90;;;;;;4993953;28;20030;-83
2021/10/05 14:52:56;;;;;;;0.80;0.70;;;15.10;99.90;;;;;;4993535;28;20184;-83
2021/10/05 14:55:22;;;;;;;0.98;0.60;;;15.20;99.90;;;;;;4976120;28;20550;-84
2021/10/05 14:57:48;;;;;;;0.63;0.63;;;15.20;99.90;;;;;;4993283;28;20019;-83
2021/10/05 15:00:16;;;;;;;0.93;0.70;;;15.30;99.90;;;;;;4995264;28;20034;-84
2021/10/05 15:02:42;;;;;;;1.13;0.70;;;15.30;99.90;;;;;;4993402;28;20439;-84
2021/10/05 15:05:10;;;;;;;1.05;0.70;;;15.40;99.90;;;;;;4994091;28;20158;-84
2021/10/05 15:07:36;;;;;;;2.92;0.93;;;15.60;99.90;;;;;;4993383;28;20037;-84
2021/10/05 15:10:04;;;;;;;1.80;0.70;;;15.80;99.90;;;;;;4993920;28;20026;-83
2021/10/05 15:12:30;;;;;;;0.82;0.60;;;16.70;99.90;;;;;;4993532;28;20402;-84
2021/10/05 15:14:55;;;;;;;1.50;0.82;;;16.60;99.90;;;;;;4995533;28;20092;-84
2021/10/05 15:17:21;;;;;;;3.05;0.80;;;16.90;99.90;;;;;;4993224;28;20032;-84
2021/10/05 15:19:47;;;;;;;0.70;0.55;;;16.70;99.90;;;;;;4993500;28;20077;-83
2021/10/05 15:22:13;;;;;;;2.30;0.80;;;16.70;99.90;;;;;;4993387;28;20128;-84
2021/10/05 15:24:38;;;;;;;0.70;0.70;;;18.10;99.90;;;;;;4993477;28;20401;-84
2021/10/05 15:27:04;;;;;;;0.80;0.75;;;18.40;99.90;;;;;;4995063;28;20113;-84
2021/10/05 15:29:31;;;;;;;0.63;0.63;;;19.10;99.90;;;;;;4993516;28;20426;-84
2021/10/05 15:31:57;;;;;;;1.20;0.85;;;19.10;99.90;;;;;;4975407;28;20018;-84
2021/10/05 15:34:22;;;;;;;1.83;0.90;;;19.50;99.90;;;;;;4993567;28;20458;-84
2021/10/05 15:36:49;;;;;;;1.92;0.85;;;19.20;99.90;;;;;;4991418;28;20054;-84
2021/10/05 15:39:16;;;;;;;1.02;0.75;;;19.40;99.90;;;;;;4994713;28;20026;-84
2021/10/05 15:41:43;;;;;;;2.60;1.00;;;19.20;99.90;;;;;;4992282;28;20041;-83
2021/10/05 15:44:08;;;;;;;1.17;0.70;;;19.30;99.90;;;;;;4993133;28;20027;-84
2021/10/05 15:46:35;;;;;;;4.00;0.82;;;19.00;99.90;;;;;;4993282;28;20030;-84
2021/10/05 15:49:01;;;;;;;2.20;1.35;;;17.70;99.90;;;;;;4992709;28;20455;-83
2021/10/05 15:53:53;;;;;;;2.22;0.80;;;16.60;99.90;;;;;;4994567;28;20027;-84
2021/10/05 15:56:18;;;;;;;1.05;0.80;;;16.30;99.90;;;;;;4992977;28;20122;-83
2021/10/05 15:58:44;;;;;;;2.42;0.90;;;16.20;99.90;;;;;;4992620;28;20046;-84
2021/10/05 16:01:10;;;;;;;1.83;1.17;;;16.20;99.90;;;;;;4992912;28;20478;-83
2021/10/05 16:03:35;;;;;;;2.53;0.80;;;16.20;99.90;;;;;;4992748;28;20054;-83
2021/10/05 16:06:01;;;;;;;1.48;1.10;;;16.20;99.90;;;;;;4994819;28;20057;-83
2021/10/05 16:08:29;;;;;;;3.15;1.20;;;16.20;99.90;;;;;;4992285;28;20510;-83
2021/10/05 16:10:55;;;;;;;3.40;1.10;;;16.10;99.90;;;;;;4992029;28;20030;-84
2021/10/05 16:13:20;;;;;;;1.42;0.88;;;16.00;99.90;;;;;;4992698;28;20037;-83
2021/10/05 16:15:46;;;;;;;2.80;1.17;;;16.00;99.90;;;;;;4991209;28;20030;-83
2021/10/05 16:18:11;;;;;;;1.88;0.90;;;16.00;99.90;;;;;;4994183;28;20038;-83
2021/10/05 16:20:37;;;;;;;2.00;0.90;;;15.80;99.90;;;;;;4973061;28;20026;-84
2021/10/05 16:23:04;;;;;;;0.77;0.77;;;15.80;99.90;;;;;;4991963;28;20026;-83
2021/10/05 16:25:30;;;;;;;2.88;0.95;;;15.80;99.90;;;;;;4992047;28;20034;-83
2021/10/05 16:27:55;;;;;;;2.30;0.80;;;15.80;99.90;;;;;;4992426;28;20041;-83
2021/10/05 16:30:21;;;;;;;1.77;1.02;;;15.80;99.90;;;;;;4993580;28;20066;-83
2021/10/05 16:32:46;;;;;;;1.65;0.63;;;15.70;99.90;;;;;;4993055;28;20081;-83
2021/10/05 16:35:12;;;;;;;3.55;1.13;;;15.70;99.90;;;;;;4991660;28;20109;-84
2021/10/05 16:37:39;;;;;;;1.58;1.02;;;15.70;99.90;;;;;;4992057;28;20026;-83
2021/10/05 16:40:09;;;;;;;1.15;0.73;;;15.60;99.90;;;;;;4974411;28;20693;-84
2021/10/05 16:42:34;;;;;;;2.13;0.93;;;15.50;99.90;;;;;;4992196;28;20522;-83
2021/10/05 16:45:00;;;;;;;2.72;1.08;;;15.30;99.90;;;;;;4993692;28;20026;-83
2021/10/05 16:47:26;;;;;;;1.70;1.10;;;14.90;99.90;;;;;;4991938;28;20088;-83
2021/10/05 16:49:52;;;;;;;1.70;1.10;;;14.40;1.00;;;;;;4991343;28;20410;-83
2021/10/05 16:52:18;;;;;;;2.72;1.20;;;14.40;99.90;;;;;;4991985;28;20217;-83
2021/10/05 16:54:44;;;;;;;5.60;1.40;;;14.40;99.90;;;;;;4990324;28;20039;-83
2021/10/05 16:57:10;;;;;;;3.80;1.50;;;14.20;99.90;;;;;;4993969;28;20534;-83
2021/10/05 16:59:36;;;;;;;3.75;1.20;;;13.80;99.90;;;;;;4991309;28;20130;-83
2021/10/05 17:02:02;;;;;;;1.83;1.15;;;13.80;99.90;;;;;;4991667;28;20034;-83
2021/10/05 17:04:29;;;;;;;4.25;1.50;;;13.80;99.90;;;;;;4990738;28;20039;-83
2021/10/05 17:06:55;;;;;;;4.40;1.23;;;13.70;99.90;;;;;;4991187;28;20018;-83
2021/10/05 17:09:21;;;;;;;3.30;1.17;;;13.70;99.90;;;;;;4992291;28;20553;-83
2021/10/05 17:11:47;;;;;;;3.28;1.08;;;13.80;99.90;;;;;;4992134;28;20018;-83
2021/10/05 17:14:13;;;;;;;3.38;1.20;;;13.80;99.90;;;;;;4991625;28;20046;-83
2021/10/05 17:16:39;;;;;;;2.60;1.25;;;13.80;99.90;;;;;;4991191;28;20058;-83
2021/10/05 17:19:05;;;;;;;5.75;1.83;;;13.80;99.90;;;;;;4991383;28;20077;-83
2021/10/05 17:21:31;;;;;;;3.03;1.30;;;14.00;99.90;;;;;;4990908;28;20027;-82
2021/10/05 17:24:05;;;;;;;4.53;1.38;;;14.00;99.90;;;;;;5109260;27;20953;-83
2021/10/05 17:26:32;;;;;;;6.18;1.60;;;14.00;99.90;;;;;;5092573;28;20032;-83
2021/10/05 17:29:06;;;;;;;8.00;2.15;;;14.00;99.90;;;;;;5091380;28;20052;-82
2021/10/05 17:31:33;;;;;;;3.72;2.60;;;14.00;99.90;;;;;;5091717;28;20502;-83
2021/10/05 17:34:00;;;;;;;6.55;2.17;;;13.90;99.90;;;;;;5087041;28;20124;-83
2021/10/05 17:36:27;;;;;;;3.95;1.98;;;13.90;99.90;;;;;;5089637;28;20042;-83
2021/10/05 17:38:52;;;;;;;5.07;1.55;;;13.80;99.90;;;;;;5091004;28;20123;-83
2021/10/05 17:41:18;;;;;;;3.03;1.75;;;13.70;99.90;;;;;;5091131;28;20210;-83
2021/10/05 17:43:44;;;;;;;4.30;1.60;;;13.60;99.90;;;;;;5090602;28;20060;-83
2021/10/05 17:46:10;;;;;;;3.45;1.92;;;13.40;99.90;;;;;;5089868;28;20065;-83
2021/10/05 17:48:36;;;;;;;8.90;3.33;;;13.40;99.90;;;;;;5087348;28;20046;-83
2021/10/05 17:51:01;;;;;;;6.80;2.70;;;13.30;99.90;;;;;;5093023;28;20059;-83
2021/10/05 17:53:27;;;;;;;4.50;2.40;;;13.20;99.90;;;;;;5087969;28;20020;-82
2021/10/05 17:55:52;;;;;;;14.75;7.35;;;13.10;99.90;;;;;;5091320;28;20455;-83
2021/10/05 17:58:18;;;;;;;21.33;12.30;;;13.00;99.90;;;;;;5090744;28;20395;-83
2021/10/05 18:00:44;;;;;;;15.98;10.10;;;12.90;99.90;;;;;;5086900;28;20036;-82
2021/10/05 18:03:11;;;;;;;10.88;6.05;;;12.90;99.90;;;;;;5092095;28;20278;-83
2021/10/05 18:05:37;;;;;;;6.93;4.80;;;12.90;99.90;;;;;;5091492;28;20468;-83
2021/10/05 18:08:03;;;;;;;5.15;2.80;;;12.90;99.90;;;;;;5091091;28;20062;-83
2021/10/05 18:10:30;;;;;;;4.85;2.85;;;13.00;99.90;;;;;;5090748;28;20016;-83
2021/10/05 18:12:55;;;;;;;4.30;3.65;;;13.00;99.90;;;;;;5086386;28;20037;-82
2021/10/05 18:15:22;;;;;;;6.22;3.30;;;13.00;99.90;;;;;;5089773;28;20029;-83
2021/10/05 18:17:47;;;;;;;4.35;2.05;;;12.90;99.90;;;;;;5090440;28;20390;-83
2021/10/05 18:20:13;;;;;;;4.88;1.95;;;13.10;99.90;;;;;;5090278;28;20025;-83
2021/10/05 18:22:39;;;;;;;6.13;2.22;;;12.80;99.90;;;;;;5090200;28;20064;-83
2021/10/05 18:25:09;;;;;;;5.22;2.20;;;12.70;99.90;;;;;;5089123;28;20067;-83
2021/10/05 18:27:37;;;;;;;4.38;2.33;;;12.70;99.90;;;;;;5087065;28;20032;-83
2021/10/05 18:30:04;;;;;;;23.27;4.78;;;12.70;99.90;;;;;;5092022;28;20023;-86
2021/10/05 18:32:30;;;;;;;7.53;4.38;;;12.70;99.90;;;;;;5089922;28;20033;-84
2021/10/05 18:34:58;;;;;;;6.65;3.80;;;12.60;99.90;;;;;;5079749;28;20099;-86
2021/10/05 18:37:25;;;;;;;3.20;2.63;;;12.60;99.90;;;;;;5075794;28;20502;-84
2021/10/05 18:39:52;;;;;;;8.07;4.00;;;12.50;99.90;;;;;;5073448;28;20021;-83
2021/10/05 18:42:18;;;;;;;6.55;4.18;;;12.50;99.90;;;;;;5076582;28;20060;-85
2021/10/05 18:44:44;;;;;;;5.07;2.92;;;12.50;99.90;;;;;;5077841;28;20048;-84
2021/10/05 18:47:09;;;;;;;9.10;2.85;;;12.40;99.90;;;;;;5076337;28;20032;-88
2021/10/05 18:49:35;;;;;;;4.38;2.33;;;12.40;99.90;;;;;;5074181;28;20083;-89
2021/10/05 18:52:01;;;;;;;3.72;2.40;;;12.40;99.90;;;;;;5072222;28;20037;-85
2021/10/05 18:54:26;;;;;;;4.45;2.50;;;12.90;99.90;;;;;;5092078;28;20059;-84
2021/10/05 18:56:52;;;;;;;5.07;2.78;;;12.60;99.90;;;;;;5074618;28;20044;-89
2021/10/05 18:59:18;;;;;;;4.35;2.85;;;12.70;99.90;;;;;;5076214;28;20029;-91
2021/10/05 19:01:44;;;;;;;6.45;3.03;;;12.70;99.90;;;;;;5076096;28;20488;-86
2021/10/05 19:04:10;;;;;;;8.50;3.30;;;12.80;99.90;;;;;;5075195;28;20126;-83
2021/10/05 19:06:36;;;;;;;5.07;3.40;;;12.90;99.90;;;;;;5072901;28;20577;-83
2021/10/05 19:09:03;;;;;;;7.28;3.45;;;13.00;99.90;;;;;;5069408;28;20475;-83
2021/10/05 19:11:29;;;;;;;5.53;3.60;;;13.10;99.90;;;;;;5074157;28;20434;-87
2021/10/05 19:13:55;;;;;;;4.05;3.20;;;13.20;99.90;;;;;;5058041;28;20504;-89
2021/10/05 19:16:20;;;;;;;5.22;3.00;;;13.20;99.90;;;;;;5061138;28;20053;-88
2021/10/05 19:18:48;;;;;;;4.93;3.03;;;13.30;99.90;;;;;;5072177;28;20044;-88
2021/10/05 19:21:14;;;;;;;4.22;2.50;;;13.30;99.90;;;;;;5090614;28;20121;-88
2021/10/05 19:23:40;;;;;;;6.78;2.67;;;13.30;99.90;;;;;;5089758;28;20104;-87
2021/10/05 19:26:06;;;;;;;5.82;2.75;;;13.40;99.90;;;;;;5071618;28;20403;-87
2021/10/05 19:28:32;;;;;;;6.50;2.70;;;13.20;99.90;;;;;;5066916;28;20033;-88
2021/10/05 19:30:57;;;;;;;6.22;3.50;;;13.30;99.90;;;;;;5086228;28;20435;-88
2021/10/05 19:33:23;;;;;;;4.63;3.90;;;13.30;99.90;;;;;;5073324;28;20029;-88
2021/10/05 19:35:49;;;;;;;6.45;4.20;;;13.40;99.90;;;;;;5075829;28;20021;-87
2021/10/05 19:38:14;;;;;;;9.18;4.22;;;13.40;99.90;;;;;;5082588;28;20040;-88
2021/10/05 19:40:41;;;;;;;8.15;4.93;;;13.40;99.90;;;;;;5083784;28;20382;-88
2021/10/05 19:43:06;;;;;;;6.65;4.78;;;13.30;99.90;;;;;;5074005;28;20199;-87
2021/10/05 19:45:32;;;;;;;7.82;4.88;;;13.30;99.90;;;;;;5070014;28;20119;-87
2021/10/05 19:47:58;;;;;;;5.00;3.92;;;13.30;99.90;;;;;;5077067;28;20028;-88
2021/10/05 19:50:24;;;;;;;7.25;3.60;;;13.40;99.90;;;;;;5074394;28;20035;-87
2021/10/05 19:52:49;;;;;;;6.35;3.45;;;13.40;99.90;;;;;;5075309;28;20085;-88
2021/10/05 19:55:15;;;;;;;4.97;3.22;;;13.40;99.90;;;;;;5074141;28;20476;-90
2021/10/05 19:57:41;;;;;;;5.38;3.47;;;13.40;99.90;;;;;;5069350;28;20404;-87
2021/10/05 20:00:10;;;;;;;6.97;3.92;;;13.40;99.90;;;;;;5077364;28;20034;-88
2021/10/05 20:02:36;;;;;;;5.88;4.28;;;13.30;99.90;;;;;;5074131;28;20134;-88
2021/10/05 20:05:03;;;;;;;5.40;3.60;;;13.30;99.90;;;;;;5072010;28;20029;-88
2021/10/05 20:07:28;;;;;;;7.72;3.55;;;13.30;99.90;;;;;;5077475;28;20028;-89
2021/10/05 20:09:54;;;;;;;6.18;4.47;;;13.30;99.90;;;;;;5086990;28;20063;-88
2021/10/05 20:12:19;;;;;;;7.63;6.22;;;13.30;99.90;;;;;;5074540;28;20112;-88
2021/10/05 20:14:45;;;;;;;8.60;5.53;;;13.40;99.90;;;;;;5075764;28;20198;-86
2021/10/05 20:17:11;;;;;;;8.27;4.40;;;13.30;99.90;;;;;;5075405;28;20039;-90
2021/10/05 20:19:37;;;;;;;5.07;3.67;;;13.30;99.90;;;;;;5072944;28;20044;-86
2021/10/05 20:22:03;;;;;;;5.57;3.60;;;13.30;99.90;;;;;;5071980;28;20114;-88
2021/10/05 20:24:28;;;;;;;5.05;3.95;;;13.20;99.90;;;;;;5090588;28;20064;-89
2021/10/05 20:26:54;;;;;;;6.88;4.30;;;13.30;99.90;;;;;;5073212;28;20032;-87
2021/10/05 20:29:19;;;;;;;6.28;4.50;;;13.20;99.90;;;;;;5073388;28;20028;-87
2021/10/05 20:31:46;;;;;;;7.05;4.15;;;13.30;99.90;;;;;;5074226;28;20054;-90
2021/10/05 20:34:12;;;;;;;5.45;3.78;;;13.30;99.90;;;;;;5074482;28;20025;-87
2021/10/05 20:36:37;;;;;;;6.00;4.50;;;13.30;99.90;;;;;;5070423;28;20554;-90
2021/10/05 20:39:05;;;;;;;11.23;4.60;;;13.40;99.90;;;;;;5074567;28;20033;-87
2021/10/05 20:41:31;;;;;;;5.05;3.33;;;13.40;99.90;;;;;;5074685;28;20453;-87
2021/10/05 20:43:57;;;;;;;5.75;3.70;;;13.40;99.90;;;;;;5072296;28;20136;-88
2021/10/05 20:46:23;;;;;;;4.85;3.50;;;13.40;99.90;;;;;;5070878;28;20115;-87
2021/10/05 20:48:49;;;;;;;6.85;4.25;;;13.50;99.90;;;;;;5085576;28;20036;-88
2021/10/05 20:51:15;;;;;;;8.93;4.38;;;13.50;99.90;;;;;;5074565;28;20103;-87
2021/10/05 20:53:42;;;;;;;9.27;4.57;;;13.40;99.90;;;;;;5070810;28;20120;-88
2021/10/05 20:56:08;;;;;;;6.85;4.18;;;13.40;99.90;;;;;;5072893;28;20036;-88
2021/10/05 20:58:33;;;;;;;6.82;4.32;;;13.40;99.90;;;;;;5072225;28;20028;-88
2021/10/05 21:00:59;;;;;;;8.40;4.38;;;13.30;99.90;;;;;;5071188;28;20036;-89
2021/10/05 21:03:25;;;;;;;9.40;5.07;;;13.30;99.90;;;;;;5070477;28;20036;-88
2021/10/05 21:05:51;;;;;;;10.32;5.57;;;13.20;99.90;;;;;;5075760;28;20032;-89
2021/10/05 21:08:16;;;;;;;10.20;7.10;;;13.20;99.90;;;;;;5103414;28;20040;-89
2021/10/05 21:10:42;;;;;;;18.45;11.07;;;13.00;99.90;;;;;;5070138;28;20027;-89
2021/10/05 21:13:08;;;;;;;11.80;9.32;;;12.90;99.90;;;;;;5083769;28;20035;-88
2021/10/05 21:15:33;;;;;;;13.65;9.10;;;12.90;99.90;;;;;;5071212;28;20040;-85
2021/10/05 21:17:59;;;;;;;10.00;7.88;;;12.90;99.90;;;;;;5075866;28;20034;-85
2021/10/05 21:20:25;;;;;;;9.88;7.25;;;12.90;99.90;;;;;;5073702;28;20031;-87
2021/10/05 21:22:51;;;;;;;11.38;7.40;;;12.80;99.90;;;;;;5071981;28;20064;-85
2021/10/05 21:25:17;;;;;;;10.07;7.80;;;12.80;99.90;;;;;;5074131;28;20403;-85
2021/10/05 21:27:44;;;;;;;9.60;7.25;;;12.80;99.90;;;;;;5054418;28;20085;-86
2021/10/05 21:30:10;;;;;;;10.38;7.53;;;12.80;99.90;;;;;;5076192;28;20381;-85
2021/10/05 21:32:37;;;;;;;8.02;7.20;;;12.90;99.90;;;;;;5074077;28;20027;-86
2021/10/05 21:35:03;;;;;;;8.50;7.25;;;12.80;99.90;;;;;;5072756;28;20040;-85
2021/10/05 21:37:29;;;;;;;8.70;6.55;;;12.80;99.90;;;;;;5073856;28;20024;-85
2021/10/05 21:39:54;;;;;;;8.38;6.32;;;12.90;99.90;;;;;;5069359;28;20074;-84
2021/10/05 21:42:21;;;;;;;8.65;6.78;;;13.00;99.90;;;;;;5073287;28;20041;-86
2021/10/05 21:44:46;;;;;;;8.45;6.72;;;12.90;99.90;;;;;;5075005;28;20028;-85
2021/10/05 21:47:12;;;;;;;9.85;6.57;;;13.00;99.90;;;;;;5072024;28;20036;-86
2021/10/05 21:49:38;;;;;;;9.50;6.38;;;13.00;99.90;;;;;;5074043;28;20522;-85
2021/10/05 21:52:04;;;;;;;9.38;6.72;;;13.10;99.90;;;;;;5072125;28;20036;-85
2021/10/05 21:54:29;;;;;;;8.85;5.75;;;13.10;99.90;;;;;;5071891;28;20020;-85
2021/10/05 21:56:56;;;;;;;7.80;6.20;;;12.90;99.90;;;;;;5078450;28;20411;-85
2021/10/05 21:59:23;;;;;;;7.82;6.22;;;12.80;99.90;;;;;;5075915;28;20047;-85
2021/10/05 22:01:51;;;;;;;8.80;6.03;;;12.70;99.90;;;;;;5073274;28;20423;-85
2021/10/05 22:04:17;;;;;;;11.77;7.05;;;12.80;99.90;;;;;;5070868;28;20400;-86
2021/10/05 22:06:43;;;;;;;7.82;5.93;;;12.70;99.90;;;;;;5068008;28;20025;-85
2021/10/05 22:09:09;;;;;;;9.07;6.80;;;12.70;99.90;;;;;;5076813;28;20021;-86
2021/10/05 22:11:35;;;;;;;12.10;7.30;;;12.60;99.90;;;;;;5074461;28;20029;-85
2021/10/05 22:14:01;;;;;;;9.63;7.50;;;12.60;99.90;;;;;;5077191;28;20029;-85
2021/10/05 22:16:27;;;;;;;10.68;7.53;;;12.50;99.90;;;;;;5077112;28;20059;-85
2021/10/05 22:18:52;;;;;;;10.15;8.10;;;12.60;99.90;;;;;;5073709;28;20032;-85
2021/10/05 22:21:19;;;;;;;11.75;8.15;;;12.80;99.90;;;;;;5077344;28;20086;-85
2021/10/05 22:23:47;;;;;;;11.25;8.95;;;12.50;99.90;;;;;;5077373;28;20048;-85
2021/10/05 22:26:15;;;;;;;9.30;6.88;;;12.70;99.90;;;;;;5076734;28;20025;-85
2021/10/05 22:28:41;;;;;;;9.63;6.00;;;12.40;99.90;;;;;;5077243;28;20029;-86
2021/10/05 22:31:07;;;;;;;9.60;5.78;;;12.40;99.90;;;;;;5074876;28;20034;-85
2021/10/05 22:33:33;;;;;;;6.28;5.50;;;12.40;99.90;;;;;;5073719;28;20028;-84
2021/10/05 22:35:59;;;;;;;10.95;6.07;;;12.30;99.90;;;;;;5078896;28;20070;-85